Terminal Aerodrome Forecast
Issued by NWS

Home | Current Version | Previous Version | Text Only | Print | Product List | Glossary On
Versions: 1 2 3 4 5 6 7 8 9 10 11 12 13
000
FTUS46 KMTR 231100
TAFOAK
TAF
KOAK 231120Z 2312/2418 30005KT P6SM SCT200
     FM231800 27010KT P6SM SCT200
     FM232000 27017KT P6SM SCT200
     FM240400 28010KT P6SM BKN200
     FM240700 26005KT P6SM BKN200
     FM241000 27005KT P6SM SCT015 OVC025=

USA.gov is the U.S. government's official web portal to all federal, state and local government web resources and services.